sensor_id;sensor_type;location;lat;lon;timestamp;P1;durP1;ratioP1;P2;durP2;ratioP2
29362;SDS011;16349;53.672;10.014;2022-07-04T00:01:19;5.40;;;2.60;;
29362;SDS011;16349;53.672;10.014;2022-07-04T00:03:47;4.03;;;2.67;;
29362;SDS011;16349;53.672;10.014;2022-07-04T00:06:14;5.70;;;3.00;;
29362;SDS011;16349;53.672;10.014;2022-07-04T00:08:42;3.10;;;2.83;;
29362;SDS011;16349;53.672;10.014;2022-07-04T00:11:09;4.13;;;2.80;;
29362;SDS011;16349;53.672;10.014;2022-07-04T00:13:35;6.63;;;3.00;;
29362;SDS011;16349;53.672;10.014;2022-07-04T00:16:03;3.20;;;2.73;;
29362;SDS011;16349;53.672;10.014;2022-07-04T00:18:30;6.53;;;2.90;;
29362;SDS011;16349;53.672;10.014;2022-07-04T00:20:58;3.27;;;2.70;;
29362;SDS011;16349;53.672;10.014;2022-07-04T00:23:25;3.07;;;2.77;;
29362;SDS011;16349;53.672;10.014;2022-07-04T00:25:52;3.30;;;2.70;;
29362;SDS011;16349;53.672;10.014;2022-07-04T00:28:19;3.10;;;2.80;;
29362;SDS011;16349;53.672;10.014;2022-07-04T00:30:46;6.57;;;2.83;;
29362;SDS011;16349;53.672;10.014;2022-07-04T00:33:12;6.03;;;3.17;;
29362;SDS011;16349;53.672;10.014;2022-07-04T00:35:41;4.17;;;2.87;;
29362;SDS011;16349;53.672;10.014;2022-07-04T00:38:09;5.43;;;2.93;;
29362;SDS011;16349;53.672;10.014;2022-07-04T00:40:37;5.20;;;3.20;;
29362;SDS011;16349;53.672;10.014;2022-07-04T00:43:04;4.63;;;2.87;;
29362;SDS011;16349;53.672;10.014;2022-07-04T00:45:32;5.53;;;3.07;;
29362;SDS011;16349;53.672;10.014;2022-07-04T00:47:58;3.07;;;2.83;;
29362;SDS011;16349;53.672;10.014;2022-07-04T00:50:25;2.97;;;2.77;;
29362;SDS011;16349;53.672;10.014;2022-07-04T00:52:52;5.07;;;2.97;;
29362;SDS011;16349;53.672;10.014;2022-07-04T00:55:22;8.20;;;3.03;;
29362;SDS011;16349;53.672;10.014;2022-07-04T00:57:49;6.73;;;3.37;;
29362;SDS011;16349;53.672;10.014;2022-07-04T01:00:16;3.70;;;2.80;;
29362;SDS011;16349;53.672;10.014;2022-07-04T01:02:44;5.73;;;2.97;;
29362;SDS011;16349;53.672;10.014;2022-07-04T01:05:12;3.50;;;3.20;;
29362;SDS011;16349;53.672;10.014;2022-07-04T01:07:39;4.47;;;3.00;;
29362;SDS011;16349;53.672;10.014;2022-07-04T01:10:06;3.63;;;3.30;;
29362;SDS011;16349;53.672;10.014;2022-07-04T01:12:36;4.73;;;3.57;;
29362;SDS011;16349;53.672;10.014;2022-07-04T01:15:03;3.97;;;3.57;;
29362;SDS011;16349;53.672;10.014;2022-07-04T01:17:31;5.20;;;4.00;;
29362;SDS011;16349;53.672;10.014;2022-07-04T01:19:57;4.97;;;3.93;;
29362;SDS011;16349;53.672;10.014;2022-07-04T01:22:26;5.67;;;3.43;;
29362;SDS011;16349;53.672;10.014;2022-07-04T01:24:53;9.70;;;4.40;;
29362;SDS011;16349;53.672;10.014;2022-07-04T01:27:20;4.83;;;3.93;;
29362;SDS011;16349;53.672;10.014;2022-07-04T01:29:46;7.37;;;4.87;;
29362;SDS011;16349;53.672;10.014;2022-07-04T01:32:14;8.60;;;4.60;;
29362;SDS011;16349;53.672;10.014;2022-07-04T01:34:42;5.80;;;4.87;;
29362;SDS011;16349;53.672;10.014;2022-07-04T01:37:09;6.80;;;4.50;;
29362;SDS011;16349;53.672;10.014;2022-07-04T01:39:38;7.37;;;5.33;;
29362;SDS011;16349;53.672;10.014;2022-07-04T01:42:05;8.07;;;5.97;;
29362;SDS011;16349;53.672;10.014;2022-07-04T01:44:33;7.73;;;6.03;;
29362;SDS011;16349;53.672;10.014;2022-07-04T01:47:00;7.40;;;5.90;;
29362;SDS011;16349;53.672;10.014;2022-07-04T01:49:28;10.07;;;5.67;;
29362;SDS011;16349;53.672;10.014;2022-07-04T01:51:55;8.97;;;6.67;;
29362;SDS011;16349;53.672;10.014;2022-07-04T01:54:22;7.10;;;6.27;;
29362;SDS011;16349;53.672;10.014;2022-07-04T01:56:51;8.00;;;7.20;;
29362;SDS011;16349;53.672;10.014;2022-07-04T01:59:18;8.07;;;7.10;;
29362;SDS011;16349;53.672;10.014;2022-07-04T02:02:05;9.00;;;7.00;;
29362;SDS011;16349;53.672;10.014;2022-07-04T02:04:30;8.30;;;7.50;;
29362;SDS011;16349;53.672;10.014;2022-07-04T02:06:59;10.17;;;7.70;;
29362;SDS011;16349;53.672;10.014;2022-07-04T02:09:26;7.83;;;7.07;;
29362;SDS011;16349;53.672;10.014;2022-07-04T02:11:54;8.73;;;7.83;;
29362;SDS011;16349;53.672;10.014;2022-07-04T02:14:39;9.00;;;7.87;;
29362;SDS011;16349;53.672;10.014;2022-07-04T02:17:06;9.77;;;8.77;;
29362;SDS011;16349;53.672;10.014;2022-07-04T02:19:33;10.97;;;8.83;;
29362;SDS011;16349;53.672;10.014;2022-07-04T02:22:00;9.93;;;8.63;;
29362;SDS011;16349;53.672;10.014;2022-07-04T02:24:28;10.13;;;9.10;;
29362;SDS011;16349;53.672;10.014;2022-07-04T02:26:58;9.77;;;8.80;;
29362;SDS011;16349;53.672;10.014;2022-07-04T02:29:25;10.03;;;9.00;;
29362;SDS011;16349;53.672;10.014;2022-07-04T02:31:52;11.13;;;9.93;;
29362;SDS011;16349;53.672;10.014;2022-07-04T02:34:18;14.70;;;10.43;;
29362;SDS011;16349;53.672;10.014;2022-07-04T02:36:45;17.97;;;12.27;;
29362;SDS011;16349;53.672;10.014;2022-07-04T02:39:12;15.17;;;11.50;;
29362;SDS011;16349;53.672;10.014;2022-07-04T02:41:39;16.03;;;12.97;;
29362;SDS011;16349;53.672;10.014;2022-07-04T02:44:07;16.27;;;12.60;;
29362;SDS011;16349;53.672;10.014;2022-07-04T02:46:35;18.17;;;12.37;;
29362;SDS011;16349;53.672;10.014;2022-07-04T02:49:02;15.33;;;12.20;;
29362;SDS011;16349;53.672;10.014;2022-07-04T02:51:30;16.07;;;12.07;;
29362;SDS011;16349;53.672;10.014;2022-07-04T02:53:57;16.20;;;12.50;;
29362;SDS011;16349;53.672;10.014;2022-07-04T02:56:24;15.77;;;12.67;;
29362;SDS011;16349;53.672;10.014;2022-07-04T02:58:51;17.50;;;13.70;;
29362;SDS011;16349;53.672;10.014;2022-07-04T03:01:19;18.40;;;13.23;;
29362;SDS011;16349;53.672;10.014;2022-07-04T03:03:47;17.00;;;12.13;;
29362;SDS011;16349;53.672;10.014;2022-07-04T03:06:13;13.40;;;11.23;;
29362;SDS011;16349;53.672;10.014;2022-07-04T03:08:41;17.17;;;11.93;;
29362;SDS011;16349;53.672;10.014;2022-07-04T03:11:07;14.03;;;11.73;;
29362;SDS011;16349;53.672;10.014;2022-07-04T03:13:34;13.60;;;10.63;;
29362;SDS011;16349;53.672;10.014;2022-07-04T03:16:01;14.37;;;10.70;;
29362;SDS011;16349;53.672;10.014;2022-07-04T03:18:30;10.73;;;9.37;;
29362;SDS011;16349;53.672;10.014;2022-07-04T03:20:57;12.33;;;10.23;;
29362;SDS011;16349;53.672;10.014;2022-07-04T03:23:24;15.93;;;10.17;;
29362;SDS011;16349;53.672;10.014;2022-07-04T03:25:50;14.13;;;10.37;;
29362;SDS011;16349;53.672;10.014;2022-07-04T03:28:17;15.07;;;9.97;;
29362;SDS011;16349;53.672;10.014;2022-07-04T03:30:44;16.43;;;10.47;;
29362;SDS011;16349;53.672;10.014;2022-07-04T03:33:11;12.60;;;10.27;;
29362;SDS011;16349;53.672;10.014;2022-07-04T03:35:39;11.00;;;9.83;;
29362;SDS011;16349;53.672;10.014;2022-07-04T03:38:05;12.63;;;10.00;;
29362;SDS011;16349;53.672;10.014;2022-07-04T03:40:32;11.37;;;8.67;;
29362;SDS011;16349;53.672;10.014;2022-07-04T03:43:01;10.43;;;9.33;;
29362;SDS011;16349;53.672;10.014;2022-07-04T03:45:28;11.30;;;9.20;;
29362;SDS011;16349;53.672;10.014;2022-07-04T03:47:55;11.50;;;9.00;;
29362;SDS011;16349;53.672;10.014;2022-07-04T03:50:22;10.77;;;9.67;;
29362;SDS011;16349;53.672;10.014;2022-07-04T03:52:51;11.03;;;8.63;;
29362;SDS011;16349;53.672;10.014;2022-07-04T03:55:17;11.07;;;9.87;;
29362;SDS011;16349;53.672;10.014;2022-07-04T03:57:45;10.00;;;9.03;;
29362;SDS011;16349;53.672;10.014;2022-07-04T04:00:12;12.67;;;9.97;;
29362;SDS011;16349;53.672;10.014;2022-07-04T04:02:40;11.40;;;10.20;;
29362;SDS011;16349;53.672;10.014;2022-07-04T04:05:07;12.60;;;10.27;;
29362;SDS011;16349;53.672;10.014;2022-07-04T04:07:54;11.20;;;10.10;;
29362;SDS011;16349;53.672;10.014;2022-07-04T04:10:21;12.57;;;11.00;;
29362;SDS011;16349;53.672;10.014;2022-07-04T04:12:48;12.33;;;10.30;;
29362;SDS011;16349;53.672;10.014;2022-07-04T04:15:15;12.37;;;10.57;;
29362;SDS011;16349;53.672;10.014;2022-07-04T04:17:43;12.50;;;10.70;;
29362;SDS011;16349;53.672;10.014;2022-07-04T04:20:09;15.80;;;12.93;;
29362;SDS011;16349;53.672;10.014;2022-07-04T04:22:36;14.87;;;12.03;;
29362;SDS011;16349;53.672;10.014;2022-07-04T04:25:05;15.23;;;12.00;;
29362;SDS011;16349;53.672;10.014;2022-07-04T04:27:33;13.07;;;11.07;;
29362;SDS011;16349;53.672;10.014;2022-07-04T04:29:59;14.50;;;11.67;;
29362;SDS011;16349;53.672;10.014;2022-07-04T04:32:26;14.83;;;12.73;;
29362;SDS011;16349;53.672;10.014;2022-07-04T04:34:53;15.57;;;12.27;;
29362;SDS011;16349;53.672;10.014;2022-07-04T04:37:20;12.37;;;11.10;;
29362;SDS011;16349;53.672;10.014;2022-07-04T04:39:47;12.60;;;11.33;;
29362;SDS011;16349;53.672;10.014;2022-07-04T04:42:15;12.30;;;10.83;;
29362;SDS011;16349;53.672;10.014;2022-07-04T04:44:42;12.93;;;11.53;;
29362;SDS011;16349;53.672;10.014;2022-07-04T04:47:09;13.80;;;10.90;;
29362;SDS011;16349;53.672;10.014;2022-07-04T04:49:36;11.83;;;10.63;;
29362;SDS011;16349;53.672;10.014;2022-07-04T04:52:03;20.50;;;11.10;;
29362;SDS011;16349;53.672;10.014;2022-07-04T04:54:30;13.17;;;10.67;;
29362;SDS011;16349;53.672;10.014;2022-07-04T04:56:58;14.23;;;10.50;;
29362;SDS011;16349;53.672;10.014;2022-07-04T04:59:27;11.50;;;9.30;;
29362;SDS011;16349;53.672;10.014;2022-07-04T05:01:55;10.43;;;9.33;;
29362;SDS011;16349;53.672;10.014;2022-07-04T05:04:22;15.50;;;8.57;;
29362;SDS011;16349;53.672;10.014;2022-07-04T05:06:49;8.47;;;7.63;;
29362;SDS011;16349;53.672;10.014;2022-07-04T05:09:15;11.17;;;8.33;;
29362;SDS011;16349;53.672;10.014;2022-07-04T05:11:42;12.97;;;8.23;;
29362;SDS011;16349;53.672;10.014;2022-07-04T05:14:09;13.80;;;7.77;;
29362;SDS011;16349;53.672;10.014;2022-07-04T05:16:37;8.70;;;7.17;;
29362;SDS011;16349;53.672;10.014;2022-07-04T05:19:04;8.30;;;6.67;;
29362;SDS011;16349;53.672;10.014;2022-07-04T05:21:31;8.67;;;6.43;;
29362;SDS011;16349;53.672;10.014;2022-07-04T05:23:58;7.93;;;5.70;;
29362;SDS011;16349;53.672;10.014;2022-07-04T05:26:24;8.37;;;7.40;;
29362;SDS011;16349;53.672;10.014;2022-07-04T05:28:52;6.27;;;5.67;;
29362;SDS011;16349;53.672;10.014;2022-07-04T05:31:20;6.13;;;5.33;;
29362;SDS011;16349;53.672;10.014;2022-07-04T05:33:48;5.93;;;4.67;;
29362;SDS011;16349;53.672;10.014;2022-07-04T05:36:15;5.73;;;4.10;;
29362;SDS011;16349;53.672;10.014;2022-07-04T05:38:42;5.27;;;3.93;;
29362;SDS011;16349;53.672;10.014;2022-07-04T05:41:08;5.80;;;3.47;;
29362;SDS011;16349;53.672;10.014;2022-07-04T05:43:35;3.77;;;2.90;;
29362;SDS011;16349;53.672;10.014;2022-07-04T05:46:02;4.17;;;2.57;;
29362;SDS011;16349;53.672;10.014;2022-07-04T05:48:29;5.07;;;3.23;;
29362;SDS011;16349;53.672;10.014;2022-07-04T05:50:57;3.23;;;2.50;;
29362;SDS011;16349;53.672;10.014;2022-07-04T05:53:24;4.23;;;2.47;;
29362;SDS011;16349;53.672;10.014;2022-07-04T05:55:50;3.67;;;2.33;;
29362;SDS011;16349;53.672;10.014;2022-07-04T05:58:17;5.67;;;2.30;;
29362;SDS011;16349;53.672;10.014;2022-07-04T06:00:44;2.23;;;1.90;;
29362;SDS011;16349;53.672;10.014;2022-07-04T06:03:11;5.10;;;1.80;;
29362;SDS011;16349;53.672;10.014;2022-07-04T06:05:38;2.93;;;1.70;;
29362;SDS011;16349;53.672;10.014;2022-07-04T06:08:06;3.13;;;1.73;;
29362;SDS011;16349;53.672;10.014;2022-07-04T06:10:33;14.97;;;8.07;;
29362;SDS011;16349;53.672;10.014;2022-07-04T06:13:00;2.43;;;1.40;;
29362;SDS011;16349;53.672;10.014;2022-07-04T06:15:27;3.10;;;1.83;;
29362;SDS011;16349;53.672;10.014;2022-07-04T06:17:54;3.07;;;1.53;;
29362;SDS011;16349;53.672;10.014;2022-07-04T06:20:21;4.23;;;1.50;;
29362;SDS011;16349;53.672;10.014;2022-07-04T06:22:48;3.00;;;1.50;;
29362;SDS011;16349;53.672;10.014;2022-07-04T06:25:17;3.53;;;1.57;;
29362;SDS011;16349;53.672;10.014;2022-07-04T06:27:46;3.50;;;1.20;;
29362;SDS011;16349;53.672;10.014;2022-07-04T06:30:14;2.67;;;1.30;;
29362;SDS011;16349;53.672;10.014;2022-07-04T06:32:43;2.43;;;1.20;;
29362;SDS011;16349;53.672;10.014;2022-07-04T06:35:11;2.30;;;1.20;;
29362;SDS011;16349;53.672;10.014;2022-07-04T06:37:55;4.43;;;1.70;;
29362;SDS011;16349;53.672;10.014;2022-07-04T06:40:23;3.63;;;1.30;;
29362;SDS011;16349;53.672;10.014;2022-07-04T06:42:50;3.10;;;1.53;;
29362;SDS011;16349;53.672;10.014;2022-07-04T06:45:17;3.87;;;1.53;;
29362;SDS011;16349;53.672;10.014;2022-07-04T06:47:44;3.10;;;1.10;;
29362;SDS011;16349;53.672;10.014;2022-07-04T06:50:11;6.03;;;1.20;;
29362;SDS011;16349;53.672;10.014;2022-07-04T06:52:38;2.80;;;1.03;;
29362;SDS011;16349;53.672;10.014;2022-07-04T06:55:05;6.43;;;1.33;;
29362;SDS011;16349;53.672;10.014;2022-07-04T06:57:34;2.40;;;1.10;;
29362;SDS011;16349;53.672;10.014;2022-07-04T07:00:01;2.90;;;1.20;;
29362;SDS011;16349;53.672;10.014;2022-07-04T07:02:28;3.67;;;1.20;;
29362;SDS011;16349;53.672;10.014;2022-07-04T07:04:55;5.77;;;1.33;;
29362;SDS011;16349;53.672;10.014;2022-07-04T07:07:22;3.33;;;1.60;;
29362;SDS011;16349;53.672;10.014;2022-07-04T07:09:51;1.57;;;1.10;;
29362;SDS011;16349;53.672;10.014;2022-07-04T07:12:17;2.03;;;1.17;;
29362;SDS011;16349;53.672;10.014;2022-07-04T07:14:45;3.47;;;1.17;;
29362;SDS011;16349;53.672;10.014;2022-07-04T07:17:12;1.60;;;0.90;;
29362;SDS011;16349;53.672;10.014;2022-07-04T07:19:40;5.57;;;1.27;;
29362;SDS011;16349;53.672;10.014;2022-07-04T07:22:07;4.73;;;1.57;;
29362;SDS011;16349;53.672;10.014;2022-07-04T07:24:34;2.27;;;1.30;;
29362;SDS011;16349;53.672;10.014;2022-07-04T07:27:00;2.80;;;1.10;;
29362;SDS011;16349;53.672;10.014;2022-07-04T07:29:28;4.20;;;1.40;;
29362;SDS011;16349;53.672;10.014;2022-07-04T07:31:57;2.90;;;1.33;;
29362;SDS011;16349;53.672;10.014;2022-07-04T07:34:23;5.80;;;0.90;;
29362;SDS011;16349;53.672;10.014;2022-07-04T07:36:50;3.80;;;1.03;;
29362;SDS011;16349;53.672;10.014;2022-07-04T07:39:17;5.60;;;1.17;;
29362;SDS011;16349;53.672;10.014;2022-07-04T07:41:44;5.67;;;1.10;;
29362;SDS011;16349;53.672;10.014;2022-07-04T07:44:11;2.42;;;1.27;;
29362;SDS011;16349;53.672;10.014;2022-07-04T07:46:38;1.10;;;0.90;;
29362;SDS011;16349;53.672;10.014;2022-07-04T07:49:06;2.67;;;1.03;;
29362;SDS011;16349;53.672;10.014;2022-07-04T07:51:33;4.67;;;1.20;;
29362;SDS011;16349;53.672;10.014;2022-07-04T07:54:00;2.90;;;0.90;;
29362;SDS011;16349;53.672;10.014;2022-07-04T07:56:26;3.97;;;1.35;;
29362;SDS011;16349;53.672;10.014;2022-07-04T07:58:53;2.03;;;1.00;;
29362;SDS011;16349;53.672;10.014;2022-07-04T08:01:20;1.77;;;1.00;;
29362;SDS011;16349;53.672;10.014;2022-07-04T08:03:47;1.47;;;0.77;;
29362;SDS011;16349;53.672;10.014;2022-07-04T08:06:32;1.50;;;1.40;;
29362;SDS011;16349;53.672;10.014;2022-07-04T08:08:59;2.77;;;1.57;;
29362;SDS011;16349;53.672;10.014;2022-07-04T08:11:27;2.90;;;1.57;;
29362;SDS011;16349;53.672;10.014;2022-07-04T08:13:54;2.77;;;0.70;;
29362;SDS011;16349;53.672;10.014;2022-07-04T08:16:20;2.00;;;0.83;;
29362;SDS011;16349;53.672;10.014;2022-07-04T08:18:47;4.23;;;0.93;;
29362;SDS011;16349;53.672;10.014;2022-07-04T08:21:14;1.80;;;0.93;;
29362;SDS011;16349;53.672;10.014;2022-07-04T08:23:42;2.10;;;1.10;;
29362;SDS011;16349;53.672;10.014;2022-07-04T08:26:09;4.20;;;0.90;;
29362;SDS011;16349;53.672;10.014;2022-07-04T08:28:35;2.43;;;0.73;;
29362;SDS011;16349;53.672;10.014;2022-07-04T08:31:02;1.37;;;0.70;;
29362;SDS011;16349;53.672;10.014;2022-07-04T08:33:29;1.53;;;0.80;;
29362;SDS011;16349;53.672;10.014;2022-07-04T08:35:56;2.30;;;1.07;;
29362;SDS011;16349;53.672;10.014;2022-07-04T08:38:23;1.03;;;0.60;;
29362;SDS011;16349;53.672;10.014;2022-07-04T08:40:56;1.40;;;0.90;;
29362;SDS011;16349;53.672;10.014;2022-07-04T08:43:25;3.80;;;1.23;;
29362;SDS011;16349;53.672;10.014;2022-07-04T08:45:52;2.57;;;1.00;;
29362;SDS011;16349;53.672;10.014;2022-07-04T08:48:22;1.10;;;1.00;;
29362;SDS011;16349;53.672;10.014;2022-07-04T08:50:51;0.90;;;0.60;;
29362;SDS011;16349;53.672;10.014;2022-07-04T08:53:21;2.33;;;1.30;;
29362;SDS011;16349;53.672;10.014;2022-07-04T08:55:53;1.87;;;0.90;;
29362;SDS011;16349;53.672;10.014;2022-07-04T08:58:39;2.93;;;0.80;;
29362;SDS011;16349;53.672;10.014;2022-07-04T09:01:08;3.13;;;1.03;;
29362;SDS011;16349;53.672;10.014;2022-07-04T09:03:40;0.80;;;0.80;;
29362;SDS011;16349;53.672;10.014;2022-07-04T09:06:08;0.70;;;0.63;;
29362;SDS011;16349;53.672;10.014;2022-07-04T09:08:36;2.03;;;0.60;;
29362;SDS011;16349;53.672;10.014;2022-07-04T09:11:04;5.37;;;1.00;;
29362;SDS011;16349;53.672;10.014;2022-07-04T09:13:33;1.70;;;0.73;;
29362;SDS011;16349;53.672;10.014;2022-07-04T09:16:00;2.10;;;0.70;;
29362;SDS011;16349;53.672;10.014;2022-07-04T09:18:28;3.00;;;1.00;;
29362;SDS011;16349;53.672;10.014;2022-07-04T09:20:56;2.43;;;0.77;;
29362;SDS011;16349;53.672;10.014;2022-07-04T09:23:25;1.63;;;0.70;;
29362;SDS011;16349;53.672;10.014;2022-07-04T09:26:11;1.00;;;0.50;;
29362;SDS011;16349;53.672;10.014;2022-07-04T09:28:40;2.00;;;0.80;;
29362;SDS011;16349;53.672;10.014;2022-07-04T09:31:18;1.60;;;0.80;;
29362;SDS011;16349;53.672;10.014;2022-07-04T09:33:46;1.53;;;0.90;;
29362;SDS011;16349;53.672;10.014;2022-07-04T09:36:16;0.83;;;0.50;;
29362;SDS011;16349;53.672;10.014;2022-07-04T09:38:44;1.03;;;0.80;;
29362;SDS011;16349;53.672;10.014;2022-07-04T09:41:13;1.73;;;0.70;;
29362;SDS011;16349;53.672;10.014;2022-07-04T09:43:58;2.60;;;1.10;;
29362;SDS011;16349;53.672;10.014;2022-07-04T09:46:26;1.67;;;0.70;;
29362;SDS011;16349;53.672;10.014;2022-07-04T09:48:54;0.40;;;0.40;;
29362;SDS011;16349;53.672;10.014;2022-07-04T09:51:35;1.03;;;0.60;;
29362;SDS011;16349;53.672;10.014;2022-07-04T09:54:13;2.00;;;0.70;;
29362;SDS011;16349;53.672;10.014;2022-07-04T09:56:42;3.30;;;0.80;;
29362;SDS011;16349;53.672;10.014;2022-07-04T09:59:09;0.77;;;0.40;;
29362;SDS011;16349;53.672;10.014;2022-07-04T10:01:36;0.77;;;0.60;;
29362;SDS011;16349;53.672;10.014;2022-07-04T10:04:04;0.60;;;0.60;;
29362;SDS011;16349;53.672;10.014;2022-07-04T10:06:31;0.90;;;0.50;;
29362;SDS011;16349;53.672;10.014;2022-07-04T10:09:06;1.80;;;0.50;;
29362;SDS011;16349;53.672;10.014;2022-07-04T10:11:33;2.03;;;0.60;;
29362;SDS011;16349;53.672;10.014;2022-07-04T10:14:03;2.07;;;0.50;;
29362;SDS011;16349;53.672;10.014;2022-07-04T10:16:30;2.93;;;1.53;;
29362;SDS011;16349;53.672;10.014;2022-07-04T10:18:57;0.50;;;0.50;;
29362;SDS011;16349;53.672;10.014;2022-07-04T10:21:24;1.20;;;0.67;;
29362;SDS011;16349;53.672;10.014;2022-07-04T10:23:50;0.73;;;0.50;;
29362;SDS011;16349;53.672;10.014;2022-07-04T10:26:18;4.60;;;0.40;;
29362;SDS011;16349;53.672;10.014;2022-07-04T10:28:45;1.20;;;0.60;;
29362;SDS011;16349;53.672;10.014;2022-07-04T10:31:14;1.27;;;0.43;;
29362;SDS011;16349;53.672;10.014;2022-07-04T10:33:41;0.97;;;0.50;;
29362;SDS011;16349;53.672;10.014;2022-07-04T10:36:13;1.30;;;0.70;;
29362;SDS011;16349;53.672;10.014;2022-07-04T10:38:48;5.93;;;0.70;;
29362;SDS011;16349;53.672;10.014;2022-07-04T10:41:17;0.67;;;0.57;;
29362;SDS011;16349;53.672;10.014;2022-07-04T10:43:55;0.97;;;0.50;;
29362;SDS011;16349;53.672;10.014;2022-07-04T10:46:29;1.07;;;0.50;;
29362;SDS011;16349;53.672;10.014;2022-07-04T10:48:57;1.70;;;0.43;;
29362;SDS011;16349;53.672;10.014;2022-07-04T10:54:08;1.53;;;0.80;;
29362;SDS011;16349;53.672;10.014;2022-07-04T10:56:41;2.20;;;0.43;;
29362;SDS011;16349;53.672;10.014;2022-07-04T10:59:22;0.87;;;0.50;;
29362;SDS011;16349;53.672;10.014;2022-07-04T11:04:53;0.70;;;0.47;;
29362;SDS011;16349;53.672;10.014;2022-07-04T11:07:23;2.47;;;0.77;;
29362;SDS011;16349;53.672;10.014;2022-07-04T11:10:20;0.40;;;0.40;;
29362;SDS011;16349;53.672;10.014;2022-07-04T11:13:01;0.93;;;0.40;;
29362;SDS011;16349;53.672;10.014;2022-07-04T11:18:25;2.73;;;0.60;;
29362;SDS011;16349;53.672;10.014;2022-07-04T11:20:53;2.27;;;0.60;;
29362;SDS011;16349;53.672;10.014;2022-07-04T11:23:20;0.57;;;0.40;;
29362;SDS011;16349;53.672;10.014;2022-07-04T11:25:48;3.10;;;0.70;;
29362;SDS011;16349;53.672;10.014;2022-07-04T11:28:18;2.83;;;0.70;;
29362;SDS011;16349;53.672;10.014;2022-07-04T11:30:47;0.50;;;0.50;;
29362;SDS011;16349;53.672;10.014;2022-07-04T11:33:16;0.97;;;0.40;;
29362;SDS011;16349;53.672;10.014;2022-07-04T11:35:59;0.50;;;0.50;;
29362;SDS011;16349;53.672;10.014;2022-07-04T11:38:42;0.57;;;0.40;;
29362;SDS011;16349;53.672;10.014;2022-07-04T11:41:14;1.23;;;0.63;;
29362;SDS011;16349;53.672;10.014;2022-07-04T11:44:01;1.20;;;0.90;;
29362;SDS011;16349;53.672;10.014;2022-07-04T11:46:46;1.47;;;0.90;;
29362;SDS011;16349;53.672;10.014;2022-07-04T11:49:13;1.53;;;0.77;;
29362;SDS011;16349;53.672;10.014;2022-07-04T11:51:45;1.53;;;0.80;;
29362;SDS011;16349;53.672;10.014;2022-07-04T11:54:14;1.53;;;0.70;;
29362;SDS011;16349;53.672;10.014;2022-07-04T11:56:43;2.13;;;0.73;;
29362;SDS011;16349;53.672;10.014;2022-07-04T11:59:10;1.00;;;0.90;;
29362;SDS011;16349;53.672;10.014;2022-07-04T12:01:40;1.77;;;0.83;;
29362;SDS011;16349;53.672;10.014;2022-07-04T12:04:11;2.63;;;0.83;;
29362;SDS011;16349;53.672;10.014;2022-07-04T12:06:40;0.93;;;0.67;;
29362;SDS011;16349;53.672;10.014;2022-07-04T12:09:10;1.97;;;0.60;;
29362;SDS011;16349;53.672;10.014;2022-07-04T12:11:49;2.30;;;0.70;;
29362;SDS011;16349;53.672;10.014;2022-07-04T12:14:17;1.90;;;0.97;;
29362;SDS011;16349;53.672;10.014;2022-07-04T12:16:44;2.00;;;0.67;;
29362;SDS011;16349;53.672;10.014;2022-07-04T12:19:12;0.93;;;0.47;;
29362;SDS011;16349;53.672;10.014;2022-07-04T12:21:42;1.63;;;1.10;;
29362;SDS011;16349;53.672;10.014;2022-07-04T12:24:10;0.77;;;0.70;;
29362;SDS011;16349;53.672;10.014;2022-07-04T12:26:46;1.67;;;0.50;;
29362;SDS011;16349;53.672;10.014;2022-07-04T12:29:20;0.57;;;0.50;;
29362;SDS011;16349;53.672;10.014;2022-07-04T12:31:50;2.97;;;0.60;;
29362;SDS011;16349;53.672;10.014;2022-07-04T12:34:18;2.33;;;1.43;;
29362;SDS011;16349;53.672;10.014;2022-07-04T12:36:49;1.73;;;0.57;;
29362;SDS011;16349;53.672;10.014;2022-07-04T12:39:33;2.77;;;0.60;;
29362;SDS011;16349;53.672;10.014;2022-07-04T12:42:09;0.93;;;0.60;;
29362;SDS011;16349;53.672;10.014;2022-07-04T12:44:37;2.13;;;0.75;;
29362;SDS011;16349;53.672;10.014;2022-07-04T12:47:06;6.68;;;1.00;;
29362;SDS011;16349;53.672;10.014;2022-07-04T12:49:34;3.00;;;0.90;;
29362;SDS011;16349;53.672;10.014;2022-07-04T12:52:05;2.22;;;0.70;;
29362;SDS011;16349;53.672;10.014;2022-07-04T12:54:35;2.40;;;0.43;;
29362;SDS011;16349;53.672;10.014;2022-07-04T12:57:04;0.60;;;0.40;;
29362;SDS011;16349;53.672;10.014;2022-07-04T12:59:35;3.15;;;0.98;;
29362;SDS011;16349;53.672;10.014;2022-07-04T13:02:02;2.00;;;1.13;;
29362;SDS011;16349;53.672;10.014;2022-07-04T13:04:30;1.58;;;0.70;;
29362;SDS011;16349;53.672;10.014;2022-07-04T13:06:58;1.73;;;0.60;;
29362;SDS011;16349;53.672;10.014;2022-07-04T13:09:38;1.20;;;0.60;;
29362;SDS011;16349;53.672;10.014;2022-07-04T13:12:05;1.88;;;0.50;;
29362;SDS011;16349;53.672;10.014;2022-07-04T13:14:53;0.70;;;0.70;;
29362;SDS011;16349;53.672;10.014;2022-07-04T13:17:21;1.25;;;0.73;;
29362;SDS011;16349;53.672;10.014;2022-07-04T13:19:49;1.65;;;0.60;;
29362;SDS011;16349;53.672;10.014;2022-07-04T13:22:18;0.90;;;0.90;;
29362;SDS011;16349;53.672;10.014;2022-07-04T13:24:46;0.85;;;0.60;;
29362;SDS011;16349;53.672;10.014;2022-07-04T13:27:13;2.00;;;1.20;;
29362;SDS011;16349;53.672;10.014;2022-07-04T13:29:40;2.42;;;0.70;;
29362;SDS011;16349;53.672;10.014;2022-07-04T13:32:07;2.30;;;0.80;;
29362;SDS011;16349;53.672;10.014;2022-07-04T13:34:34;2.22;;;0.75;;
29362;SDS011;16349;53.672;10.014;2022-07-04T13:37:02;2.13;;;0.75;;
29362;SDS011;16349;53.672;10.014;2022-07-04T13:39:29;5.10;;;0.80;;
29362;SDS011;16349;53.672;10.014;2022-07-04T13:41:57;1.13;;;0.70;;
29362;SDS011;16349;53.672;10.014;2022-07-04T13:44:24;1.73;;;0.65;;
29362;SDS011;16349;53.672;10.014;2022-07-04T13:46:51;1.77;;;0.80;;
29362;SDS011;16349;53.672;10.014;2022-07-04T13:49:18;1.55;;;0.90;;
29362;SDS011;16349;53.672;10.014;2022-07-04T13:51:45;2.75;;;1.08;;
29362;SDS011;16349;53.672;10.014;2022-07-04T13:54:12;1.65;;;0.82;;
29362;SDS011;16349;53.672;10.014;2022-07-04T13:56:38;1.02;;;0.88;;
29362;SDS011;16349;53.672;10.014;2022-07-04T13:59:08;2.65;;;1.00;;
29362;SDS011;16349;53.672;10.014;2022-07-04T14:01:36;3.50;;;0.95;;
29362;SDS011;16349;53.672;10.014;2022-07-04T14:04:03;2.60;;;1.25;;
29362;SDS011;16349;53.672;10.014;2022-07-04T14:06:30;0.95;;;0.90;;
29362;SDS011;16349;53.672;10.014;2022-07-04T14:08:58;1.48;;;1.38;;
29362;SDS011;16349;53.672;10.014;2022-07-04T14:11:24;1.63;;;0.93;;
29362;SDS011;16349;53.672;10.014;2022-07-04T14:13:51;3.30;;;0.95;;
29362;SDS011;16349;53.672;10.014;2022-07-04T14:16:21;2.35;;;0.80;;
29362;SDS011;16349;53.672;10.014;2022-07-04T14:18:47;1.13;;;0.80;;
29362;SDS011;16349;53.672;10.014;2022-07-04T14:21:14;2.03;;;1.02;;
29362;SDS011;16349;53.672;10.014;2022-07-04T14:23:41;3.95;;;0.80;;
29362;SDS011;16349;53.672;10.014;2022-07-04T14:26:10;1.88;;;0.88;;
29362;SDS011;16349;53.672;10.014;2022-07-04T14:28:38;6.68;;;0.90;;
29362;SDS011;16349;53.672;10.014;2022-07-04T14:31:05;1.13;;;0.75;;
29362;SDS011;16349;53.672;10.014;2022-07-04T14:33:34;1.92;;;1.10;;
29362;SDS011;16349;53.672;10.014;2022-07-04T14:36:01;3.33;;;0.90;;
29362;SDS011;16349;53.672;10.014;2022-07-04T14:38:30;2.20;;;0.90;;
29362;SDS011;16349;53.672;10.014;2022-07-04T14:40:58;1.90;;;0.85;;
29362;SDS011;16349;53.672;10.014;2022-07-04T14:43:38;1.30;;;0.77;;
29362;SDS011;16349;53.672;10.014;2022-07-04T14:46:06;1.48;;;0.77;;
29362;SDS011;16349;53.672;10.014;2022-07-04T14:48:35;3.00;;;0.75;;